No data was retrieved for https://query.yahooapis.com/v1/public/yql?q=select+%2A+from+weather.forecast+where+woeid%3D626045&format=xml&u=c


Notice: Undefined index: in /var/www/html/weather28/wsIconUrl.php on line 132

Warning: A non-numeric value encountered in /var/www/html/weather28/wsIconUrl.php on line 140

Warning: A non-numeric value encountered in /var/www/html/weather28/wsIconUrl.php on line 141

Warning: A non-numeric value encountered in /var/www/html/weather28/wsFunctions.php on line 312
- Bienvenue sur la Station Météo " Les Brantus " située au Point du Jour, Saint-Nazaire, 44600 -
Chaleur extrême Valable du: 24-07-2019 05:00 Au: 25-07-2019 05:00 Avertissement pour: Chaleur extrême Niveau: Orange info button

Météo Saint-Nazaire.



Visitez nos sites météorologiques autres:

Template documentation
and downloads

And another site



Rapports METAR proximité


Warning: A non-numeric value encountered in /var/www/html/weather28/metar/metarDisplay.php on line 166

Warning: A non-numeric value encountered in /var/www/html/weather28/metar/metarDisplay.php on line 166

Warning: A non-numeric value encountered in /var/www/html/weather28/metar/metarDisplay.php on line 166

Warning: A non-numeric value encountered in /var/www/html/weather28/metar/metarDisplay.php on line 166

Warning: A non-numeric value encountered in /var/www/html/weather28/metar/metarDisplay.php on line 166

Warning: A non-numeric value encountered in /var/www/html/weather28/metar/metarDisplay.php on line 166

Warning: A non-numeric value encountered in /var/www/html/weather28/metar/metarDisplay.php on line 166
   
LFRZ - Saint-Nazaire, France
Mise à jour: 24-07-2019 11:00
Claires  
Claires  
   Vent: varie 5.6 km/h
Vent: varie 5.6 km/h
Température: 25°C
Point de rosée: 16°C
Humidité: 57%
Baromètre: 1015 hPa
visibilité: More than 10 km
Détails des nuages: Claires
LFRZ 240900Z AUTO VRB03KT CAVOK 25/16 Q1015 NOSIG
LFPG - Paris, France
Mise à jour: 24-07-2019 11:00
Claires  
Claires  
   Vent: ONO 11.1 km/h
Vent: ONO 11.1 km/h
Température: 31°C
Index de chaleur: 31°C
Point de rosée: 16°C
Humidité: 40%
Baromètre: 1014 hPa
visibilité: More than 10 km
Détails des nuages: Claires
LFPG 240900Z 29006KT 240V330 CAVOK 31/16 Q1014 NOSIG
LFQQ - Lille, France
Mise à jour: 24-07-2019 11:00
Claires  
Claires  
   Vent: SSO 11.1 km/h
Vent: SSO 11.1 km/h
Température: 31°C
Point de rosée: 13°C
Humidité: 33%
Baromètre: 1013 hPa
visibilité: More than 10 km
Détails des nuages: Claires
LFQQ 240900Z AUTO 21006KT 170V280 CAVOK 31/13 Q1013 NOSIG
BIRK - Reykjavik, Islande
Mise à jour: 24-07-2019 11:00
Partiellement nuageux  
Partiellement nuageux  
   Vent: ESE 14.8 km/h
Vent: ESE 14.8 km/h
Température: 14°C
Point de rosée: 7°C
Humidité: 63%
Baromètre: 1006 hPa
Nuageux: Partiellement nuageux
visibilité: More than 10 km
Détails des nuages: Peu de nuages 4000 ft,
Partiellement nuageux 13000 ft
BIRK 240900Z 12008KT 350V140 9999 FEW040 SCT130 14/07 Q1006
ENGM - Oslo, Norvège
Mise à jour: 24-07-2019 11:20
Nuageux  
Nuageux  
   Vent: Sud 11.1 km/h
Vent: Sud 11.1 km/h
Température: 20°C
Point de rosée: 18°C
Humidité: 88%
Baromètre: 1019 hPa
Nuageux: Nuageux
visibilité: 9 km
Détails des nuages: Peu de nuages 100 ft,
Nuageux 500 ft
ENGM 240920Z 17006KT 130V220 9000 FEW001 OVC005 20/18 Q1019 BECMG BKN010
EGLL - Londres, Royaume-Uni
Mise à jour: 24-07-2019 11:20
Claires  
Claires  
   Vent: OSO 13 km/h
Vent: OSO 13 km/h
Température: 27°C
Index de chaleur: 28°C
Point de rosée: 20°C
Humidité: 66%
Baromètre: 1012 hPa
Nuageux: Claires
visibilité: More than 10 km
Détails des nuages: Claires
EGLL 240920Z AUTO 24007KT 180V270 9999 NCD 27/20 Q1012
EDDT - Berlin, Allemagne *
Mise à jour: 24-07-2019 11:20
Claires  
Claires  
   Vent: NNO 7.4 km/h
Vent: NNO 7.4 km/h
Température: 28°C
Index de chaleur: 28°C
Point de rosée: 16°C
Humidité: 48%
Baromètre: 1018 hPa
visibilité: More than 10 km
Détails des nuages: Claires
EDDT 240920Z 34004KT 230V040 CAVOK 28/16 Q1018 NOSIG
UUEE - Moscou, Russie
Mise à jour: 24-07-2019 11:00
Nuageux  
Nuageux  
   Vent: ENE 10.7 km/h
Vent: ENE 10.7 km/h
Température: 20°C
Point de rosée: 17°C
Humidité: 83%
Baromètre: 1011 hPa
Nuageux: Nuageux
visibilité: More than 10 km
Détails des nuages: Nuageux 1700 ft
UUEE 240900Z 06003MPS 9999 OVC017 20/17 Q1011 R06C/CLRD62 R06R/CLRD62 NOSIG
LEMD - Madrid, Espagne
Mise à jour: 24-07-2019 11:00
Claires  
Claires  
   Vent: SSE 5.6 km/h
Vent: SSE 5.6 km/h
Température: 30°C
Point de rosée: 11°C
Humidité: 31%
Baromètre: 1018 hPa
visibilité: More than 10 km
Détails des nuages: Claires
LEMD 240900Z 16003KT CAVOK 30/11 Q1018 NOSIG
LIRF - Rome, Italie
Mise à jour: 24-07-2019 11:20
Claires  
Claires  
   Vent: Sud 9.3 km/h
Vent: Sud 9.3 km/h
Température: 33°C
Point de rosée: 13°C
Humidité: 30%
Baromètre: 1016 hPa
visibilité: More than 10 km
Détails des nuages: Claires
LIRF 240920Z 17005KT 140V220 CAVOK 33/13 Q1016 NOSIG
  

Script développé par  Saratoga-weather.org Adapté pour le modèle par  Weerstation Leuven

Vous trouverez notre info météo Également à:

WeatherCloud

Weather Underground

AWEKAS

Équipement que nous utilisons:

Programme Météo
Meteohub

Meteohub